sensor_id;sensor_type;location;lat;lon;timestamp;temperature;humidity
8882;DHT22;4477;48.736;9.176;2023-07-09T00:01:48;17.30;99.90
8882;DHT22;4477;48.736;9.176;2023-07-09T00:04:14;17.30;99.90
8882;DHT22;4477;48.736;9.176;2023-07-09T00:06:42;17.20;99.90
8882;DHT22;4477;48.736;9.176;2023-07-09T00:09:12;17.10;99.90
8882;DHT22;4477;48.736;9.176;2023-07-09T00:11:40;17.00;99.90
8882;DHT22;4477;48.736;9.176;2023-07-09T00:14:09;17.00;99.90
8882;DHT22;4477;48.736;9.176;2023-07-09T00:16:37;17.00;99.90
8882;DHT22;4477;48.736;9.176;2023-07-09T00:19:05;17.00;99.90
8882;DHT22;4477;48.736;9.176;2023-07-09T00:21:32;16.90;99.90
8882;DHT22;4477;48.736;9.176;2023-07-09T00:24:00;16.90;99.90
8882;DHT22;4477;48.736;9.176;2023-07-09T00:26:30;17.00;99.90
8882;DHT22;4477;48.736;9.176;2023-07-09T00:28:57;16.90;99.90
8882;DHT22;4477;48.736;9.176;2023-07-09T00:31:26;17.00;99.90
8882;DHT22;4477;48.736;9.176;2023-07-09T00:33:53;16.90;99.90
8882;DHT22;4477;48.736;9.176;2023-07-09T00:36:26;16.80;99.90
8882;DHT22;4477;48.736;9.176;2023-07-09T00:38:53;16.90;99.90
8882;DHT22;4477;48.736;9.176;2023-07-09T00:41:22;16.90;99.90
8882;DHT22;4477;48.736;9.176;2023-07-09T00:43:51;16.80;99.90
8882;DHT22;4477;48.736;9.176;2023-07-09T00:49:28;16.80;99.90
8882;DHT22;4477;48.736;9.176;2023-07-09T00:51:57;16.80;99.90
8882;DHT22;4477;48.736;9.176;2023-07-09T00:54:32;16.70;99.90
8882;DHT22;4477;48.736;9.176;2023-07-09T00:57:07;16.60;99.90
8882;DHT22;4477;48.736;9.176;2023-07-09T00:59:36;16.60;99.90
8882;DHT22;4477;48.736;9.176;2023-07-09T01:02:05;16.60;99.90
8882;DHT22;4477;48.736;9.176;2023-07-09T01:04:35;16.50;99.90
8882;DHT22;4477;48.736;9.176;2023-07-09T01:07:04;16.50;99.90
8882;DHT22;4477;48.736;9.176;2023-07-09T01:09:31;16.50;99.90
8882;DHT22;4477;48.736;9.176;2023-07-09T01:12:01;16.50;99.90
8882;DHT22;4477;48.736;9.176;2023-07-09T01:14:29;16.50;99.90
8882;DHT22;4477;48.736;9.176;2023-07-09T01:17:01;16.50;99.90
8882;DHT22;4477;48.736;9.176;2023-07-09T01:19:30;16.50;99.90
8882;DHT22;4477;48.736;9.176;2023-07-09T01:22:00;16.40;99.90
8882;DHT22;4477;48.736;9.176;2023-07-09T01:24:50;16.40;99.90
8882;DHT22;4477;48.736;9.176;2023-07-09T01:27:19;16.30;99.90
8882;DHT22;4477;48.736;9.176;2023-07-09T01:29:46;16.30;99.90
8882;DHT22;4477;48.736;9.176;2023-07-09T01:32:17;16.30;99.90
8882;DHT22;4477;48.736;9.176;2023-07-09T01:34:46;16.30;99.90
8882;DHT22;4477;48.736;9.176;2023-07-09T01:37:17;16.30;99.90
8882;DHT22;4477;48.736;9.176;2023-07-09T01:39:47;16.30;99.90
8882;DHT22;4477;48.736;9.176;2023-07-09T01:42:15;16.30;99.90
8882;DHT22;4477;48.736;9.176;2023-07-09T01:44:43;16.30;99.90
8882;DHT22;4477;48.736;9.176;2023-07-09T01:47:11;16.40;99.90
8882;DHT22;4477;48.736;9.176;2023-07-09T01:49:38;16.30;99.90
8882;DHT22;4477;48.736;9.176;2023-07-09T01:52:06;16.30;99.90
8882;DHT22;4477;48.736;9.176;2023-07-09T01:54:36;16.20;99.90
8882;DHT22;4477;48.736;9.176;2023-07-09T01:57:19;16.20;99.90
8882;DHT22;4477;48.736;9.176;2023-07-09T01:59:49;16.20;99.90
8882;DHT22;4477;48.736;9.176;2023-07-09T02:02:16;16.10;99.90
8882;DHT22;4477;48.736;9.176;2023-07-09T02:04:46;16.00;99.90
8882;DHT22;4477;48.736;9.176;2023-07-09T02:07:13;15.90;99.90
8882;DHT22;4477;48.736;9.176;2023-07-09T02:09:41;15.90;99.90
8882;DHT22;4477;48.736;9.176;2023-07-09T02:12:10;15.80;99.90
8882;DHT22;4477;48.736;9.176;2023-07-09T02:14:37;15.80;99.90
8882;DHT22;4477;48.736;9.176;2023-07-09T02:17:04;15.80;99.90
8882;DHT22;4477;48.736;9.176;2023-07-09T02:19:31;15.80;99.90
8882;DHT22;4477;48.736;9.176;2023-07-09T02:21:58;15.70;99.90
8882;DHT22;4477;48.736;9.176;2023-07-09T02:24:25;15.70;99.90
8882;DHT22;4477;48.736;9.176;2023-07-09T02:26:54;15.70;99.90
8882;DHT22;4477;48.736;9.176;2023-07-09T02:29:21;15.70;99.90
8882;DHT22;4477;48.736;9.176;2023-07-09T02:31:50;15.70;99.90
8882;DHT22;4477;48.736;9.176;2023-07-09T02:34:17;15.60;99.90
8882;DHT22;4477;48.736;9.176;2023-07-09T02:36:45;15.70;99.90
8882;DHT22;4477;48.736;9.176;2023-07-09T02:39:13;15.70;99.90
8882;DHT22;4477;48.736;9.176;2023-07-09T02:41:40;15.70;99.90
8882;DHT22;4477;48.736;9.176;2023-07-09T02:44:09;15.70;99.90
8882;DHT22;4477;48.736;9.176;2023-07-09T02:46:36;15.70;99.90
8882;DHT22;4477;48.736;9.176;2023-07-09T02:49:04;15.60;99.90
8882;DHT22;4477;48.736;9.176;2023-07-09T02:51:31;15.60;99.90
8882;DHT22;4477;48.736;9.176;2023-07-09T02:54:00;15.60;99.90
8882;DHT22;4477;48.736;9.176;2023-07-09T02:56:28;15.60;99.90
8882;DHT22;4477;48.736;9.176;2023-07-09T02:58:55;15.50;99.90
8882;DHT22;4477;48.736;9.176;2023-07-09T03:01:24;15.50;99.90
8882;DHT22;4477;48.736;9.176;2023-07-09T03:03:52;15.40;99.90
8882;DHT22;4477;48.736;9.176;2023-07-09T03:06:20;15.40;99.90
8882;DHT22;4477;48.736;9.176;2023-07-09T03:08:48;15.40;99.90
8882;DHT22;4477;48.736;9.176;2023-07-09T03:11:16;15.30;99.90
8882;DHT22;4477;48.736;9.176;2023-07-09T03:13:43;15.20;99.90
8882;DHT22;4477;48.736;9.176;2023-07-09T03:16:11;15.20;99.90
8882;DHT22;4477;48.736;9.176;2023-07-09T03:18:39;15.20;99.90
8882;DHT22;4477;48.736;9.176;2023-07-09T03:21:07;15.20;99.90
8882;DHT22;4477;48.736;9.176;2023-07-09T03:23:34;15.10;99.90
8882;DHT22;4477;48.736;9.176;2023-07-09T03:26:01;15.10;99.90
8882;DHT22;4477;48.736;9.176;2023-07-09T03:28:29;15.10;99.90
8882;DHT22;4477;48.736;9.176;2023-07-09T03:30:56;15.10;99.90
8882;DHT22;4477;48.736;9.176;2023-07-09T03:33:24;15.10;99.90
8882;DHT22;4477;48.736;9.176;2023-07-09T03:35:52;15.10;99.90
8882;DHT22;4477;48.736;9.176;2023-07-09T03:38:19;15.10;99.90
8882;DHT22;4477;48.736;9.176;2023-07-09T03:40:50;15.10;99.90
8882;DHT22;4477;48.736;9.176;2023-07-09T03:43:16;15.00;99.90
8882;DHT22;4477;48.736;9.176;2023-07-09T03:45:44;15.10;99.90
8882;DHT22;4477;48.736;9.176;2023-07-09T03:48:11;15.10;99.90
8882;DHT22;4477;48.736;9.176;2023-07-09T03:50:38;15.20;99.90
8882;DHT22;4477;48.736;9.176;2023-07-09T03:53:06;15.20;99.90
8882;DHT22;4477;48.736;9.176;2023-07-09T03:55:33;15.20;99.90
8882;DHT22;4477;48.736;9.176;2023-07-09T03:58:03;15.30;99.90
8882;DHT22;4477;48.736;9.176;2023-07-09T04:00:30;15.30;99.90
8882;DHT22;4477;48.736;9.176;2023-07-09T04:02:57;15.40;99.90
8882;DHT22;4477;48.736;9.176;2023-07-09T04:05:24;15.40;99.90
8882;DHT22;4477;48.736;9.176;2023-07-09T04:07:51;15.50;99.90
8882;DHT22;4477;48.736;9.176;2023-07-09T04:10:20;15.40;99.90
8882;DHT22;4477;48.736;9.176;2023-07-09T04:12:47;15.60;99.90
8882;DHT22;4477;48.736;9.176;2023-07-09T04:15:14;15.60;99.90
8882;DHT22;4477;48.736;9.176;2023-07-09T04:17:41;15.80;99.90
8882;DHT22;4477;48.736;9.176;2023-07-09T04:20:09;15.90;99.90
8882;DHT22;4477;48.736;9.176;2023-07-09T04:22:36;16.10;99.90
8882;DHT22;4477;48.736;9.176;2023-07-09T04:25:04;16.20;99.90
8882;DHT22;4477;48.736;9.176;2023-07-09T04:27:33;16.30;99.90
8882;DHT22;4477;48.736;9.176;2023-07-09T04:30:00;16.40;99.90
8882;DHT22;4477;48.736;9.176;2023-07-09T04:32:28;16.50;99.90
8882;DHT22;4477;48.736;9.176;2023-07-09T04:34:54;16.70;99.90
8882;DHT22;4477;48.736;9.176;2023-07-09T04:37:21;16.90;99.90
8882;DHT22;4477;48.736;9.176;2023-07-09T04:39:48;17.10;99.90
8882;DHT22;4477;48.736;9.176;2023-07-09T04:42:16;17.30;99.90
8882;DHT22;4477;48.736;9.176;2023-07-09T04:44:45;17.50;99.90
8882;DHT22;4477;48.736;9.176;2023-07-09T05:19:14;17.80;99.90
8882;DHT22;4477;48.736;9.176;2023-07-09T05:21:41;21.80;92.50
8882;DHT22;4477;48.736;9.176;2023-07-09T05:24:08;21.90;91.60
8882;DHT22;4477;48.736;9.176;2023-07-09T05:26:35;21.80;91.60
8882;DHT22;4477;48.736;9.176;2023-07-09T05:29:02;21.90;91.30
8882;DHT22;4477;48.736;9.176;2023-07-09T05:31:29;22.10;91.10
8882;DHT22;4477;48.736;9.176;2023-07-09T05:33:56;22.30;90.40
8882;DHT22;4477;48.736;9.176;2023-07-09T05:36:26;22.50;90.20
8882;DHT22;4477;48.736;9.176;2023-07-09T05:38:53;22.80;89.00
8882;DHT22;4477;48.736;9.176;2023-07-09T05:41:21;23.10;86.10
8882;DHT22;4477;48.736;9.176;2023-07-09T05:43:49;23.40;84.60
8882;DHT22;4477;48.736;9.176;2023-07-09T05:46:16;23.60;83.30
8882;DHT22;4477;48.736;9.176;2023-07-09T05:48:43;23.90;82.70
8882;DHT22;4477;48.736;9.176;2023-07-09T05:51:10;24.00;81.90
8882;DHT22;4477;48.736;9.176;2023-07-09T05:53:38;24.30;80.40
8882;DHT22;4477;48.736;9.176;2023-07-09T05:56:05;24.60;78.00
8882;DHT22;4477;48.736;9.176;2023-07-09T05:58:32;24.80;77.30
8882;DHT22;4477;48.736;9.176;2023-07-09T06:00:59;25.00;79.40
8882;DHT22;4477;48.736;9.176;2023-07-09T06:03:26;25.30;74.70
8882;DHT22;4477;48.736;9.176;2023-07-09T06:05:53;25.80;71.70
8882;DHT22;4477;48.736;9.176;2023-07-09T06:08:20;26.00;71.10
8882;DHT22;4477;48.736;9.176;2023-07-09T06:10:53;26.00;71.80
8882;DHT22;4477;48.736;9.176;2023-07-09T06:13:21;26.20;72.40
8882;DHT22;4477;48.736;9.176;2023-07-09T06:15:48;26.80;69.30
8882;DHT22;4477;48.736;9.176;2023-07-09T06:18:15;27.00;69.30
8882;DHT22;4477;48.736;9.176;2023-07-09T06:20:46;27.30;65.70
8882;DHT22;4477;48.736;9.176;2023-07-09T06:23:13;27.50;65.10
8882;DHT22;4477;48.736;9.176;2023-07-09T06:25:40;27.90;63.10
8882;DHT22;4477;48.736;9.176;2023-07-09T06:28:08;28.40;63.70
8882;DHT22;4477;48.736;9.176;2023-07-09T06:30:36;29.10;59.60
8882;DHT22;4477;48.736;9.176;2023-07-09T06:33:03;29.20;58.60
8882;DHT22;4477;48.736;9.176;2023-07-09T06:35:29;29.70;57.10
8882;DHT22;4477;48.736;9.176;2023-07-09T06:37:56;30.10;55.70
8882;DHT22;4477;48.736;9.176;2023-07-09T06:40:23;30.30;56.10
8882;DHT22;4477;48.736;9.176;2023-07-09T06:42:50;30.50;55.90
8882;DHT22;4477;48.736;9.176;2023-07-09T06:45:18;30.80;54.80
8882;DHT22;4477;48.736;9.176;2023-07-09T06:47:45;31.30;51.70
8882;DHT22;4477;48.736;9.176;2023-07-09T06:50:15;31.50;52.20
8882;DHT22;4477;48.736;9.176;2023-07-09T06:52:41;31.40;53.30
8882;DHT22;4477;48.736;9.176;2023-07-09T06:55:08;31.60;53.00
8882;DHT22;4477;48.736;9.176;2023-07-09T06:57:36;32.10;50.30
8882;DHT22;4477;48.736;9.176;2023-07-09T07:00:04;31.50;50.80
8882;DHT22;4477;48.736;9.176;2023-07-09T07:02:33;31.90;49.80
8882;DHT22;4477;48.736;9.176;2023-07-09T07:05:00;32.20;48.80
8882;DHT22;4477;48.736;9.176;2023-07-09T07:07:27;32.30;49.50
8882;DHT22;4477;48.736;9.176;2023-07-09T07:09:54;32.40;49.50
8882;DHT22;4477;48.736;9.176;2023-07-09T07:12:25;32.60;49.60
8882;DHT22;4477;48.736;9.176;2023-07-09T07:14:52;32.70;48.40
8882;DHT22;4477;48.736;9.176;2023-07-09T07:17:19;32.70;49.60
8882;DHT22;4477;48.736;9.176;2023-07-09T07:19:47;32.50;50.40
8882;DHT22;4477;48.736;9.176;2023-07-09T07:22:14;32.60;49.90
8882;DHT22;4477;48.736;9.176;2023-07-09T07:24:41;32.70;49.20
8882;DHT22;4477;48.736;9.176;2023-07-09T07:27:08;32.70;50.10
8882;DHT22;4477;48.736;9.176;2023-07-09T07:29:35;32.80;50.90
8882;DHT22;4477;48.736;9.176;2023-07-09T07:32:03;33.30;49.20
8882;DHT22;4477;48.736;9.176;2023-07-09T07:34:29;33.50;47.60
8882;DHT22;4477;48.736;9.176;2023-07-09T07:36:58;33.50;47.70
8882;DHT22;4477;48.736;9.176;2023-07-09T07:39:25;33.20;47.50
8882;DHT22;4477;48.736;9.176;2023-07-09T07:41:51;33.30;46.90
8882;DHT22;4477;48.736;9.176;2023-07-09T07:44:18;33.30;47.20
8882;DHT22;4477;48.736;9.176;2023-07-09T07:46:45;33.30;48.30
8882;DHT22;4477;48.736;9.176;2023-07-09T07:49:12;33.40;49.00
8882;DHT22;4477;48.736;9.176;2023-07-09T07:51:39;33.50;46.60
8882;DHT22;4477;48.736;9.176;2023-07-09T07:54:08;33.50;49.30
8882;DHT22;4477;48.736;9.176;2023-07-09T07:56:35;33.50;47.40
8882;DHT22;4477;48.736;9.176;2023-07-09T07:59:02;33.60;47.20
8882;DHT22;4477;48.736;9.176;2023-07-09T08:01:30;33.50;46.90
8882;DHT22;4477;48.736;9.176;2023-07-09T08:03:56;33.70;49.50
8882;DHT22;4477;48.736;9.176;2023-07-09T08:06:24;33.80;47.70
8882;DHT22;4477;48.736;9.176;2023-07-09T08:08:51;34.10;47.10
8882;DHT22;4477;48.736;9.176;2023-07-09T08:11:19;34.30;45.90
8882;DHT22;4477;48.736;9.176;2023-07-09T08:13:46;34.40;46.00
8882;DHT22;4477;48.736;9.176;2023-07-09T08:16:13;34.40;46.60
8882;DHT22;4477;48.736;9.176;2023-07-09T08:18:39;34.50;44.40
8882;DHT22;4477;48.736;9.176;2023-07-09T08:21:06;34.40;45.20
8882;DHT22;4477;48.736;9.176;2023-07-09T08:23:35;34.70;42.00
8882;DHT22;4477;48.736;9.176;2023-07-09T08:26:03;34.70;42.50
8882;DHT22;4477;48.736;9.176;2023-07-09T08:28:32;34.60;43.60
8882;DHT22;4477;48.736;9.176;2023-07-09T08:30:59;34.30;44.30
8882;DHT22;4477;48.736;9.176;2023-07-09T08:33:25;34.20;45.80
8882;DHT22;4477;48.736;9.176;2023-07-09T08:35:53;34.20;44.00
8882;DHT22;4477;48.736;9.176;2023-07-09T08:38:21;34.10;44.90
8882;DHT22;4477;48.736;9.176;2023-07-09T08:40:54;34.30;44.10
8882;DHT22;4477;48.736;9.176;2023-07-09T08:43:33;34.10;43.50
8882;DHT22;4477;48.736;9.176;2023-07-09T08:46:20;33.70;44.90
8882;DHT22;4477;48.736;9.176;2023-07-09T08:48:51;33.90;44.70
8882;DHT22;4477;48.736;9.176;2023-07-09T08:51:24;34.70;42.30
8882;DHT22;4477;48.736;9.176;2023-07-09T08:53:56;35.20;40.70
8882;DHT22;4477;48.736;9.176;2023-07-09T08:56:24;35.30;39.90
8882;DHT22;4477;48.736;9.176;2023-07-09T08:58:55;35.20;41.50
8882;DHT22;4477;48.736;9.176;2023-07-09T09:01:26;35.40;40.10
8882;DHT22;4477;48.736;9.176;2023-07-09T09:03:59;35.20;41.40
8882;DHT22;4477;48.736;9.176;2023-07-09T09:06:30;35.50;38.40
8882;DHT22;4477;48.736;9.176;2023-07-09T09:09:08;35.40;39.90
8882;DHT22;4477;48.736;9.176;2023-07-09T09:11:44;35.50;39.30
8882;DHT22;4477;48.736;9.176;2023-07-09T09:14:26;35.80;38.70
8882;DHT22;4477;48.736;9.176;2023-07-09T09:16:54;35.60;38.50
8882;DHT22;4477;48.736;9.176;2023-07-09T09:19:25;35.70;40.70
8882;DHT22;4477;48.736;9.176;2023-07-09T09:21:57;36.00;38.60
8882;DHT22;4477;48.736;9.176;2023-07-09T09:24:29;36.00;38.70
8882;DHT22;4477;48.736;9.176;2023-07-09T09:26:58;36.10;37.60
8882;DHT22;4477;48.736;9.176;2023-07-09T09:29:27;36.30;40.70
8882;DHT22;4477;48.736;9.176;2023-07-09T09:31:56;36.40;37.50
8882;DHT22;4477;48.736;9.176;2023-07-09T09:34:26;36.20;37.20
8882;DHT22;4477;48.736;9.176;2023-07-09T09:36:54;36.40;39.50
8882;DHT22;4477;48.736;9.176;2023-07-09T09:39:22;36.50;37.00
8882;DHT22;4477;48.736;9.176;2023-07-09T09:41:52;36.40;37.70
8882;DHT22;4477;48.736;9.176;2023-07-09T09:44:24;36.50;38.30
8882;DHT22;4477;48.736;9.176;2023-07-09T09:46:52;36.60;37.00
8882;DHT22;4477;48.736;9.176;2023-07-09T09:49:19;36.80;37.30
8882;DHT22;4477;48.736;9.176;2023-07-09T09:51:47;37.20;39.70
8882;DHT22;4477;48.736;9.176;2023-07-09T09:54:17;37.00;35.90
8882;DHT22;4477;48.736;9.176;2023-07-09T09:56:45;37.10;36.70
8882;DHT22;4477;48.736;9.176;2023-07-09T09:59:18;37.30;36.20
8882;DHT22;4477;48.736;9.176;2023-07-09T10:01:46;37.10;35.40
8882;DHT22;4477;48.736;9.176;2023-07-09T10:04:19;37.10;35.00
8882;DHT22;4477;48.736;9.176;2023-07-09T10:06:48;36.70;36.10
8882;DHT22;4477;48.736;9.176;2023-07-09T10:09:23;36.70;33.50
8882;DHT22;4477;48.736;9.176;2023-07-09T10:11:57;36.50;34.90
8882;DHT22;4477;48.736;9.176;2023-07-09T10:14:40;36.10;34.70
8882;DHT22;4477;48.736;9.176;2023-07-09T10:17:15;36.40;34.30
8882;DHT22;4477;48.736;9.176;2023-07-09T10:19:52;36.60;34.60
8882;DHT22;4477;48.736;9.176;2023-07-09T10:22:35;36.60;32.20
8882;DHT22;4477;48.736;9.176;2023-07-09T10:25:15;36.40;33.00
8882;DHT22;4477;48.736;9.176;2023-07-09T10:27:55;36.00;32.50
8882;DHT22;4477;48.736;9.176;2023-07-09T10:30:42;36.20;33.50
8882;DHT22;4477;48.736;9.176;2023-07-09T10:33:11;36.90;32.10
8882;DHT22;4477;48.736;9.176;2023-07-09T10:35:47;37.60;31.20
8882;DHT22;4477;48.736;9.176;2023-07-09T10:38:22;37.50;32.00
8882;DHT22;4477;48.736;9.176;2023-07-09T10:40:55;37.00;33.30
8882;DHT22;4477;48.736;9.176;2023-07-09T10:43:30;36.70;32.40
8882;DHT22;4477;48.736;9.176;2023-07-09T10:46:03;36.60;32.00
8882;DHT22;4477;48.736;9.176;2023-07-09T10:48:35;36.40;31.40
8882;DHT22;4477;48.736;9.176;2023-07-09T10:51:13;36.30;34.20
8882;DHT22;4477;48.736;9.176;2023-07-09T10:53:44;36.90;34.20
8882;DHT22;4477;48.736;9.176;2023-07-09T10:56:14;36.90;32.60
8882;DHT22;4477;48.736;9.176;2023-07-09T10:58:46;36.90;30.30
8882;DHT22;4477;48.736;9.176;2023-07-09T11:01:16;36.90;31.20
8882;DHT22;4477;48.736;9.176;2023-07-09T11:03:50;37.20;32.10
8882;DHT22;4477;48.736;9.176;2023-07-09T11:06:24;37.30;29.50
8882;DHT22;4477;48.736;9.176;2023-07-09T11:08:55;37.20;28.80
8882;DHT22;4477;48.736;9.176;2023-07-09T11:11:30;36.60;31.40
8882;DHT22;4477;48.736;9.176;2023-07-09T11:14:02;36.70;31.50
8882;DHT22;4477;48.736;9.176;2023-07-09T11:16:33;36.60;29.00
8882;DHT22;4477;48.736;9.176;2023-07-09T11:19:05;36.70;30.00
8882;DHT22;4477;48.736;9.176;2023-07-09T11:21:44;37.00;31.10
8882;DHT22;4477;48.736;9.176;2023-07-09T11:24:30;37.40;30.10
8882;DHT22;4477;48.736;9.176;2023-07-09T11:26:57;37.80;26.40
8882;DHT22;4477;48.736;9.176;2023-07-09T11:29:25;37.90;27.70
8882;DHT22;4477;48.736;9.176;2023-07-09T11:31:52;37.60;27.70
8882;DHT22;4477;48.736;9.176;2023-07-09T11:34:20;37.50;31.30
8882;DHT22;4477;48.736;9.176;2023-07-09T11:36:50;37.90;27.10
8882;DHT22;4477;48.736;9.176;2023-07-09T11:39:20;38.30;26.30
8882;DHT22;4477;48.736;9.176;2023-07-09T11:41:47;38.50;25.30
8882;DHT22;4477;48.736;9.176;2023-07-09T11:44:17;38.40;26.00
8882;DHT22;4477;48.736;9.176;2023-07-09T11:47:17;38.40;28.00
8882;DHT22;4477;48.736;9.176;2023-07-09T11:49:51;38.10;27.80
8882;DHT22;4477;48.736;9.176;2023-07-09T11:52:24;38.50;27.80
8882;DHT22;4477;48.736;9.176;2023-07-09T11:54:53;38.90;29.80
8882;DHT22;4477;48.736;9.176;2023-07-09T11:57:20;39.30;27.70
8882;DHT22;4477;48.736;9.176;2023-07-09T11:59:47;39.50;28.30
8882;DHT22;4477;48.736;9.176;2023-07-09T12:02:17;39.70;29.60
8882;DHT22;4477;48.736;9.176;2023-07-09T12:04:48;40.40;28.40
8882;DHT22;4477;48.736;9.176;2023-07-09T12:07:16;40.10;27.30
8882;DHT22;4477;48.736;9.176;2023-07-09T12:09:48;40.00;27.20
8882;DHT22;4477;48.736;9.176;2023-07-09T12:12:21;39.70;26.00
8882;DHT22;4477;48.736;9.176;2023-07-09T12:14:49;39.30;25.70
8882;DHT22;4477;48.736;9.176;2023-07-09T12:17:16;38.90;27.40
8882;DHT22;4477;48.736;9.176;2023-07-09T12:19:43;39.00;28.40
8882;DHT22;4477;48.736;9.176;2023-07-09T12:22:17;39.70;29.80
8882;DHT22;4477;48.736;9.176;2023-07-09T12:24:48;40.50;28.40
8882;DHT22;4477;48.736;9.176;2023-07-09T12:27:20;40.80;26.80
8882;DHT22;4477;48.736;9.176;2023-07-09T12:29:51;41.00;26.10
8882;DHT22;4477;48.736;9.176;2023-07-09T12:32:18;41.10;24.80
8882;DHT22;4477;48.736;9.176;2023-07-09T12:34:51;41.00;24.60
8882;DHT22;4477;48.736;9.176;2023-07-09T12:37:19;40.90;27.20
8882;DHT22;4477;48.736;9.176;2023-07-09T12:39:49;40.90;26.50
8882;DHT22;4477;48.736;9.176;2023-07-09T12:42:20;40.80;26.60
8882;DHT22;4477;48.736;9.176;2023-07-09T12:44:47;40.90;24.40
8882;DHT22;4477;48.736;9.176;2023-07-09T12:47:16;41.30;25.40
8882;DHT22;4477;48.736;9.176;2023-07-09T12:49:45;41.40;27.80
8882;DHT22;4477;48.736;9.176;2023-07-09T12:52:17;41.50;25.40
8882;DHT22;4477;48.736;9.176;2023-07-09T12:54:55;41.80;27.20
8882;DHT22;4477;48.736;9.176;2023-07-09T12:57:23;42.30;27.70
8882;DHT22;4477;48.736;9.176;2023-07-09T12:59:51;42.50;25.00
8882;DHT22;4477;48.736;9.176;2023-07-09T13:02:19;42.10;25.10
8882;DHT22;4477;48.736;9.176;2023-07-09T13:04:47;42.10;25.90
8882;DHT22;4477;48.736;9.176;2023-07-09T13:07:26;42.20;24.60
8882;DHT22;4477;48.736;9.176;2023-07-09T13:12:30;42.40;24.00
8882;DHT22;4477;48.736;9.176;2023-07-09T13:14:58;42.90;23.30
8882;DHT22;4477;48.736;9.176;2023-07-09T13:17:28;42.80;24.60
8882;DHT22;4477;48.736;9.176;2023-07-09T13:19:56;42.60;25.30
8882;DHT22;4477;48.736;9.176;2023-07-09T13:22:23;42.70;24.00
8882;DHT22;4477;48.736;9.176;2023-07-09T13:24:51;42.80;24.70
8882;DHT22;4477;48.736;9.176;2023-07-09T13:27:19;43.20;25.50
8882;DHT22;4477;48.736;9.176;2023-07-09T13:29:46;43.40;23.80
8882;DHT22;4477;48.736;9.176;2023-07-09T13:32:14;43.80;22.70
8882;DHT22;4477;48.736;9.176;2023-07-09T13:34:42;43.90;23.10
8882;DHT22;4477;48.736;9.176;2023-07-09T13:37:11;43.80;23.50
8882;DHT22;4477;48.736;9.176;2023-07-09T13:39:39;43.50;22.90
8882;DHT22;4477;48.736;9.176;2023-07-09T13:42:10;42.80;23.40
8882;DHT22;4477;48.736;9.176;2023-07-09T13:44:40;42.40;23.80
8882;DHT22;4477;48.736;9.176;2023-07-09T13:47:11;41.60;23.90
8882;DHT22;4477;48.736;9.176;2023-07-09T13:49:40;41.70;25.00
8882;DHT22;4477;48.736;9.176;2023-07-09T13:52:14;41.90;24.50
8882;DHT22;4477;48.736;9.176;2023-07-09T13:54:41;42.20;25.20
8882;DHT22;4477;48.736;9.176;2023-07-09T13:57:13;42.70;24.60
8882;DHT22;4477;48.736;9.176;2023-07-09T13:59:42;42.70;25.20
8882;DHT22;4477;48.736;9.176;2023-07-09T14:02:20;42.80;23.00
8882;DHT22;4477;48.736;9.176;2023-07-09T14:04:48;43.20;25.20
8882;DHT22;4477;48.736;9.176;2023-07-09T14:07:27;43.80;22.40
8882;DHT22;4477;48.736;9.176;2023-07-09T14:09:55;43.60;23.70
8882;DHT22;4477;48.736;9.176;2023-07-09T14:12:22;41.60;24.80
8882;DHT22;4477;48.736;9.176;2023-07-09T14:14:52;39.90;25.40
8882;DHT22;4477;48.736;9.176;2023-07-09T14:17:19;38.50;27.60
8882;DHT22;4477;48.736;9.176;2023-07-09T14:19:47;38.00;27.30
8882;DHT22;4477;48.736;9.176;2023-07-09T14:22:25;37.80;27.90
8882;DHT22;4477;48.736;9.176;2023-07-09T14:24:53;37.70;29.70
8882;DHT22;4477;48.736;9.176;2023-07-09T14:27:40;37.30;28.80
8882;DHT22;4477;48.736;9.176;2023-07-09T14:30:13;38.60;27.50
8882;DHT22;4477;48.736;9.176;2023-07-09T14:32:40;39.90;26.30
8882;DHT22;4477;48.736;9.176;2023-07-09T14:35:13;40.60;26.40
8882;DHT22;4477;48.736;9.176;2023-07-09T14:37:41;40.90;25.10
8882;DHT22;4477;48.736;9.176;2023-07-09T14:40:09;41.20;24.40
8882;DHT22;4477;48.736;9.176;2023-07-09T14:42:36;41.00;24.80
8882;DHT22;4477;48.736;9.176;2023-07-09T14:45:09;40.70;24.80
8882;DHT22;4477;48.736;9.176;2023-07-09T14:47:41;41.50;23.70
8882;DHT22;4477;48.736;9.176;2023-07-09T14:50:08;42.20;24.30
8882;DHT22;4477;48.736;9.176;2023-07-09T14:52:36;43.30;23.60
8882;DHT22;4477;48.736;9.176;2023-07-09T14:55:03;43.70;22.90
8882;DHT22;4477;48.736;9.176;2023-07-09T14:57:30;43.40;21.80
8882;DHT22;4477;48.736;9.176;2023-07-09T14:59:57;42.40;23.20
8882;DHT22;4477;48.736;9.176;2023-07-09T15:02:32;41.90;23.90
8882;DHT22;4477;48.736;9.176;2023-07-09T15:05:01;41.70;24.00
8882;DHT22;4477;48.736;9.176;2023-07-09T15:07:27;42.40;23.40
8882;DHT22;4477;48.736;9.176;2023-07-09T15:09:56;43.50;22.40
8882;DHT22;4477;48.736;9.176;2023-07-09T15:12:26;44.30;21.70
8882;DHT22;4477;48.736;9.176;2023-07-09T15:14:58;44.80;20.80
8882;DHT22;4477;48.736;9.176;2023-07-09T15:17:28;45.20;20.70
8882;DHT22;4477;48.736;9.176;2023-07-09T15:24:55;46.00;20.70
8882;DHT22;4477;48.736;9.176;2023-07-09T15:27:22;44.80;20.30
8882;DHT22;4477;48.736;9.176;2023-07-09T15:29:49;42.80;21.60
8882;DHT22;4477;48.736;9.176;2023-07-09T15:32:16;41.50;22.50
8882;DHT22;4477;48.736;9.176;2023-07-09T15:34:44;40.00;24.70
8882;DHT22;4477;48.736;9.176;2023-07-09T15:37:12;38.90;25.60
8882;DHT22;4477;48.736;9.176;2023-07-09T15:39:40;38.50;26.30
8882;DHT22;4477;48.736;9.176;2023-07-09T15:42:10;38.30;26.80
8882;DHT22;4477;48.736;9.176;2023-07-09T15:44:37;38.00;26.90
8882;DHT22;4477;48.736;9.176;2023-07-09T15:47:04;37.90;27.20
8882;DHT22;4477;48.736;9.176;2023-07-09T15:49:34;37.90;26.60
8882;DHT22;4477;48.736;9.176;2023-07-09T15:52:02;38.10;28.70
8882;DHT22;4477;48.736;9.176;2023-07-09T15:54:29;37.70;26.50
8882;DHT22;4477;48.736;9.176;2023-07-09T15:56:56;37.80;26.10
8882;DHT22;4477;48.736;9.176;2023-07-09T15:59:28;38.00;26.50
8882;DHT22;4477;48.736;9.176;2023-07-09T16:01:56;37.70;26.70
8882;DHT22;4477;48.736;9.176;2023-07-09T16:04:23;37.70;27.40
8882;DHT22;4477;48.736;9.176;2023-07-09T16:06:50;37.30;28.60
8882;DHT22;4477;48.736;9.176;2023-07-09T16:09:19;37.10;27.70
8882;DHT22;4477;48.736;9.176;2023-07-09T16:11:47;36.90;27.40
8882;DHT22;4477;48.736;9.176;2023-07-09T16:14:22;36.70;27.40
8882;DHT22;4477;48.736;9.176;2023-07-09T16:16:50;36.30;28.90
8882;DHT22;4477;48.736;9.176;2023-07-09T16:19:19;36.10;27.80
8882;DHT22;4477;48.736;9.176;2023-07-09T16:21:46;35.70;28.60
8882;DHT22;4477;48.736;9.176;2023-07-09T16:24:17;35.20;29.40
8882;DHT22;4477;48.736;9.176;2023-07-09T16:26:46;35.00;29.40
8882;DHT22;4477;48.736;9.176;2023-07-09T16:29:17;34.70;30.30
8882;DHT22;4477;48.736;9.176;2023-07-09T16:31:44;34.40;30.20
8882;DHT22;4477;48.736;9.176;2023-07-09T16:34:11;34.20;31.50
8882;DHT22;4477;48.736;9.176;2023-07-09T16:36:38;34.00;31.80
8882;DHT22;4477;48.736;9.176;2023-07-09T16:39:27;33.80;31.50
8882;DHT22;4477;48.736;9.176;2023-07-09T16:41:56;33.60;31.70
8882;DHT22;4477;48.736;9.176;2023-07-09T16:44:24;33.60;30.50
8882;DHT22;4477;48.736;9.176;2023-07-09T16:46:52;33.50;31.20
8882;DHT22;4477;48.736;9.176;2023-07-09T16:49:34;33.50;32.50
8882;DHT22;4477;48.736;9.176;2023-07-09T16:52:05;33.40;32.10
8882;DHT22;4477;48.736;9.176;2023-07-09T16:54:35;33.30;32.20
8882;DHT22;4477;48.736;9.176;2023-07-09T16:57:03;33.20;31.60
8882;DHT22;4477;48.736;9.176;2023-07-09T16:59:32;33.00;33.50